Latest Coastal Weather Observations for Wadeye (Port Keats)

IDD60701

Issued at 5:25 am CST Saturday 1 November 2014 (issued every 10 minutes, with the page automatically refreshed every 10 minutes)

About coastal observations | Map of coastal stations | Coastal observations for NT | Marine services | Other Formats
Station Details ID: 014948 Name: PORT KEATS AIRPORT Lat: -14.25 Lon: 129.53 Height: 28.0 m
Data from the previous 72 hours. | See also: Recent months at Wadeye (Port Keats)
Date/Time
CST
Temp

°C
Wind Pressure Rain
since 9am
mm
Weather Cloud Vis
km
Sea
Height
m
Swell
Dir
 
Speed
knots
Gust
knots
hPa Trend Height
m
Period
s
Dir
01/05:00am 25.7 CALM 0 3 1008.2 - 0.0 - - - - - - -
01/04:30am 25.7 ENE 0 3 1007.9 - 0.0 - - - - - - -
01/04:00am 26.2 CALM 0 0 1007.5 - 0.0 - - - - - - -
01/03:30am 26.1 WSW 0 0 1007.5 - 0.0 - - - - - - -
01/03:00am 26.6 CALM 0 0 1007.6 - 0.0 - - - - - - -
01/02:30am 26.8 CALM 0 0 1007.6 - 0.0 - - - - - - -
01/02:00am 26.8 CALM 0 3 1007.8 - 0.0 - - - - - - -
01/01:30am 27.3 W 3 4 1007.9 - 0.0 - - - - - - -
01/01:00am 27.6 WNW 1 4 1008.2 - 0.0 - - - - - - -
01/12:30am 27.9 WNW 3 5 1008.6 - 0.0 - - - - - - -
01/12:00am 28.4 NW 4 5 1008.9 - 0.0 - - - - - - -
 
Date/Time
CST
Temp

°C
Wind Pressure Rain
since 9am
mm
Weather Cloud Vis
km
Sea
Height
m
Swell
Dir
 
Speed
knots
Gust
knots
hPa Trend Height
m
Period
s
Dir
31/11:30pm 28.4 NW 4 6 1009.2 - 0.0 - - - - - - -
31/11:00pm 28.6 NW 5 7 1009.4 - 0.0 - - - - - - -
31/10:30pm 28.7 NNW 6 9 1009.4 - 0.0 - - - - - - -
31/10:00pm 28.8 NNW 6 8 1009.4 - 0.0 - - - - - - -
31/09:30pm 28.7 NNW 6 9 1008.9 - 0.0 - - - - - - -
31/09:00pm 28.8 NNW 5 7 1008.9 - 0.0 - - - - - - -
31/08:30pm 29.0 NNW 5 7 1008.6 - 0.0 - - - - - - -
31/08:00pm 28.9 NW 5 8 1008.0 - 0.0 - - - - - - -
31/07:30pm 29.3 NNW 6 8 1007.7 - 0.0 - - - - - - -
31/07:00pm 29.3 NW 7 11 1007.3 - 0.0 - - - - - - -
31/06:30pm 29.9 NW 6 10 1007.2 - 0.0 - - - - - - -
31/06:00pm 30.1 WNW 8 11 1006.9 - 0.0 - - - - - - -
31/05:30pm 31.2 W 8 13 1006.8 - 0.0 - - - - - - -
31/05:00pm 31.7 WNW 9 14 1006.9 - 0.0 - - - - - - -
31/04:30pm 32.0 NNW 11 14 1006.6 - 0.0 - - - - - - -
31/04:00pm 32.2 NW 11 16 1006.8 - 0.0 - - - - - - -
31/03:30pm 32.9 WNW 9 15 1007.2 - 0.0 - - - - - - -
31/03:00pm 33.1 NW 10 14 1007.5 - 0.0 - - - - - - -
31/02:30pm 33.2 NW 9 13 1007.9 - 0.0 - - - - - - -
31/02:00pm 33.5 NW 9 13 1008.2 - 0.0 - - - - - - -
31/01:30pm 33.2 NW 9 14 1008.7 - 0.0 - - - - - - -
31/01:00pm 33.7 NNW 8 14 1009.2 - 0.0 - - - - - - -
31/12:30pm 32.7 NNW 8 11 1009.7 - 0.0 - - - - - - -
31/12:00pm 32.4 NW 8 12 1010.2 - 0.0 - - - - - - -
31/11:30am 32.1 NNW 9 13 1010.6 - 0.0 - - - - - - -
31/11:00am 31.9 NW 8 12 1010.7 - 0.0 - - - - - - -
31/10:30am 32.3 NW 8 14 1010.9 - 0.0 - - - - - - -
31/10:00am 31.2 WNW 8 12 1011.0 - 0.0 - - - - - - -
31/09:30am 31.2 WNW 7 12 1010.9 - 0.0 - - - - - - -
31/09:00am 30.8 NNW 7 11 1010.6 - 0.0 - - - - - - -
31/08:30am 30.1 NW 7 11 1010.5 - 0.0 - - - - - - -
31/08:00am 29.6 NW 7 12 1010.2 - 0.0 - - - - - - -
31/07:30am 27.9 CALM 0 3 1009.7 - 0.0 - - - - - - -
31/07:00am 26.7 CALM 0 0 1009.5 - 0.0 - - - - - - -
31/06:30am 25.5 CALM 0 0 1009.2 - 0.0 - - - - - - -
31/06:00am 25.0 CALM 0 0 1008.9 - 0.0 - - - - - - -
31/05:30am 25.7 CALM 0 0 1008.6 - 0.0 - - - - - - -
31/05:00am 25.3 CALM 0 0 1008.3 - 0.0 - - - - - - -
31/04:30am 25.7 CALM 0 0 1008.1 - 0.0 - - - - - - -
31/04:00am 26.4 CALM 0 0 1007.8 - 0.0 - - - - - - -
31/03:30am 26.2 CALM 0 0 1007.6 - 0.0 - - - - - - -
31/03:00am 26.5 CALM 0 0 1007.6 - 0.0 - - - - - - -
31/02:30am 26.6 CALM 0 0 1007.7 - 0.0 - - - - - - -
31/02:00am 26.8 CALM 0 0 1007.9 - 0.0 - - - - - - -
31/01:30am 27.2 CALM 0 0 1008.0 - 0.0 - - - - - - -
31/01:00am 27.0 CALM 0 3 1008.2 - 0.0 - - - - - - -
31/12:30am 27.8 NW 3 4 1008.3 - 0.0 - - - - - - -
31/12:00am 28.0 NW 3 5 1008.6 - 0.0 - - - - - - -
 
Date/Time
CST
Temp

°C
Wind Pressure Rain
since 9am
mm
Weather Cloud Vis
km
Sea
Height
m
Swell
Dir
 
Speed
knots
Gust
knots
hPa Trend Height
m
Period
s
Dir
30/11:30pm 28.1 W 3 4 1008.8 - 0.0 - - - - - - -
30/11:00pm 28.4 WNW 4 6 1008.9 - 0.0 - - - - - - -
30/10:30pm 28.8 NW 4 7 1008.9 - 0.0 - - - - - - -
30/10:00pm 28.9 NW 5 7 1008.9 - 0.0 - - - - - - -
30/09:30pm 29.1 NNW 6 9 1008.7 - 0.0 - - - - - - -
30/09:00pm 29.2 NNW 7 9 1008.6 - 0.0 - - - - - - -
30/08:30pm 29.2 NNW 7 9 1008.3 - 0.0 - - - - - - -
30/08:00pm 29.4 NNW 8 12 1008.1 - 0.0 - - - - - - -
30/07:30pm 29.5 NNW 8 13 1007.9 - 0.0 - - - - - - -
30/07:00pm 29.7 NNW 9 12 1007.6 - 0.0 - - - - - - -
30/06:30pm 29.9 NNW 9 13 1007.4 - 0.0 - - - - - - -
30/06:00pm 30.6 NNW 10 15 1007.2 - 0.0 - - - - - - -
30/05:30pm 30.6 NW 9 12 1006.9 - 0.0 - - - - - - -
30/05:00pm 30.6 WNW 6 10 1006.5 - 0.0 - - - - - - -
30/04:30pm 31.1 NNW 11 14 1006.5 - 0.0 - - - - - - -
30/04:00pm 32.8 NNW 11 15 1006.7 - 0.0 - - - - - - -
30/03:30pm 33.4 NW 9 14 1006.8 - 0.0 - - - - - - -
30/03:00pm 34.3 NW 11 16 1007.0 - 0.0 - - - - - - -
30/02:30pm 35.0 NW 10 14 1007.4 - 0.0 - - - - - - -
30/02:00pm 35.5 NNW 10 15 1007.8 - 0.0 - - - - - - -
30/01:30pm 35.1 NW 9 13 1008.2 - 0.0 - - - - - - -
30/01:00pm 35.9 NW 7 11 1008.7 - 0.0 - - - - - - -
30/12:30pm 35.1 NW 5 11 1009.2 - 0.0 - - - - - - -
30/12:00pm 34.9 NW 7 12 1009.7 - 0.0 - - - - - - -
30/11:30am 33.8 NNW 7 11 1010.0 - 0.0 - - - - - - -
30/11:00am 33.6 NW 5 8 1010.3 - 0.0 - - - - - - -
30/10:30am 32.8 NNW 7 10 1010.7 - 0.0 - - - - - - -
30/10:00am 32.6 NNW 7 10 1011.0 - 0.0 - - - - - - -
30/09:30am 31.8 NNW 6 9 1011.0 - 0.0 - - - - - - -
30/09:00am 31.2 NNW 6 9 1011.0 - 0.0 - - - - - - -
30/08:30am 30.1 NNW 5 8 1010.8 - 0.0 - - - - - - -
30/08:00am 28.8 WNW 3 4 1010.5 - 0.0 - - - - - - -
30/07:30am 27.3 CALM 0 0 1010.5 - 0.0 - - - - - - -
30/07:00am 25.5 CALM 0 0 1010.2 - 0.0 - - - - - - -
30/06:30am 24.5 CALM 0 0 1010.1 - 0.0 - - - - - - -
30/06:00am 24.4 CALM 0 0 1009.8 - 0.0 - - - - - - -
30/05:30am 24.7 CALM 0 0 1009.6 - 0.0 - - - - - - -
30/05:00am 25.8 CALM 0 0 1009.3 - 0.0 - - - - - - -
30/04:30am 25.9 E 1 4 1009.2 - 0.0 - - - - - - -
30/04:00am 26.2 CALM 0 0 1009.1 - 0.0 - - - - - - -
30/03:30am 26.1 ENE 1 3 1009.0 - 0.0 - - - - - - -
30/03:00am 26.2 E 1 3 1009.0 - 0.0 - - - - - - -
30/02:30am 26.4 CALM 0 0 1009.0 - 0.0 - - - - - - -
30/02:00am 26.2 CALM 0 0 1008.9 - 0.0 - - - - - - -
30/01:30am 26.6 NE 1 3 1009.0 - 0.0 - - - - - - -
30/01:00am 26.7 CALM 0 3 1009.2 - 0.0 - - - - - - -
30/12:30am 27.2 NW 2 4 1009.3 - 0.0 - - - - - - -
30/12:00am 27.3 WNW 3 5 1009.6 - 0.0 - - - - - - -
 
Date/Time
CST
Temp

°C
Wind Pressure Rain
since 9am
mm
Weather Cloud Vis
km
Sea
Height
m
Swell
Dir
 
Speed
knots
Gust
knots
hPa Trend Height
m
Period
s
Dir
29/11:30pm 27.7 WNW 3 4 1009.7 - 0.0 - - - - - - -
29/11:00pm 28.4 NW 3 6 1009.9 - 0.0 - - - - - - -
29/10:30pm 28.2 NW 2 4 1009.9 - 0.0 - - - - - - -
29/10:00pm 28.2 W 1 3 1009.6 - 0.0 - - - - - - -
29/09:30pm 28.6 WNW 3 4 1009.5 - 0.0 - - - - - - -
29/09:00pm 28.9 NW 4 5 1009.5 - 0.0 - - - - - - -
29/08:30pm 28.9 WNW 4 6 1009.4 - 0.0 - - - - - - -
29/08:00pm 29.1 WNW 3 5 1009.2 - 0.0 - - - - - - -
29/07:30pm 29.4 WNW 4 6 1009.1 - 0.0 - - - - - - -
29/07:00pm 29.6 WNW 5 7 1008.8 - 0.0 - - - - - - -
29/06:30pm 30.1 WNW 6 9 1008.4 - 0.0 - - - - - - -
29/06:00pm 30.8 W 6 9 1008.3 - 0.0 - - - - - - -
29/05:30pm 31.3 W 8 12 1008.1 - 0.0 - - - - - - -
29/05:00pm 31.0 W 8 11 1008.0 - 0.0 - - - - - - -
29/04:30pm 31.9 WSW 7 14 1008.2 - 0.0 - - - - - - -
29/04:00pm 33.1 WNW 9 14 1008.1 - 0.0 - - - - - - -
29/03:30pm 33.1 WNW 10 13 1008.4 - 0.0 - - - - - - -
29/03:00pm 33.2 W 9 14 1008.8 - 0.0 - - - - - - -
29/02:30pm 33.2 WNW 9 13 1009.3 - 0.0 - - - - - - -
29/02:00pm 33.8 NW 9 16 1009.6 - 0.0 - - - - - - -
29/01:30pm 33.1 WNW 7 11 1010.3 - 0.0 - - - - - - -
29/01:00pm 33.8 NNW 10 15 1010.8 - 0.0 - - - - - - -
29/12:30pm 32.8 NNW 9 13 1011.4 - 0.0 - - - - - - -
29/12:00pm 33.6 NNW 7 8 1011.9 - 0.0 - - - - - - -
29/11:30am 31.8 NW 9 13 1012.3 - 0.0 - - - - - - -
29/11:00am 32.9 N 7 11 1012.5 - 0.0 - - - - - - -
29/10:30am 32.3 N 7 11 1012.7 - 0.0 - - - - - - -
29/10:00am 31.6 NNW 7 13 1012.7 - 0.0 - - - - - - -
29/09:30am 30.7 NW 4 8 1013.0 - 0.0 - - - - - - -
29/09:00am 30.4 N 6 9 1012.9 - 0.0 - - - - - - -
29/08:30am 29.8 N 4 6 1012.6 - 0.0 - - - - - - -
29/08:00am 28.4 ENE 4 5 1012.5 - 0.0 - - - - - - -
29/07:30am 26.7 ENE 2 3 1011.8 - 0.0 - - - - - - -
29/07:00am 24.5 CALM 0 0 1011.7 - 0.0 - - - - - - -
29/06:30am 23.5 CALM 0 0 1011.3 - 0.0 - - - - - - -
29/06:00am 22.9 CALM 0 0 1010.9 - 0.0 - - - - - - -
29/05:30am 23.0 CALM 0 0 1010.3 - 0.0 - - - - - - -

Other Formats:

Comma delimited format used in spreadsheet applications
http://www.bom.gov.au/fwo/IDD60701/IDD60701.95111.axf

JavaScript Object Notation format (JSON) in row-major order
http://www.bom.gov.au/fwo/IDD60701/IDD60701.95111.json